sensor_id;sensor_type;location;lat;lon;timestamp;pressure;altitude;pressure_sealevel;temperature;humidity
11525;BME280;5819;49.648;8.330;2022-08-21T00:00:37;100426.63;;;20.03;57.94
11525;BME280;5819;49.648;8.330;2022-08-21T00:03:10;100429.91;;;19.84;58.85
11525;BME280;5819;49.648;8.330;2022-08-21T00:05:46;100422.88;;;19.74;59.20
11525;BME280;5819;49.648;8.330;2022-08-21T00:08:16;100435.03;;;19.19;60.59
11525;BME280;5819;49.648;8.330;2022-08-21T00:10:47;100422.16;;;18.92;61.02
11525;BME280;5819;49.648;8.330;2022-08-21T00:13:17;100426.34;;;18.84;60.92
11525;BME280;5819;49.648;8.330;2022-08-21T00:15:47;100423.44;;;18.76;61.68
11525;BME280;5819;49.648;8.330;2022-08-21T00:18:17;100418.59;;;18.46;61.99
11525;BME280;5819;49.648;8.330;2022-08-21T00:20:46;100424.78;;;18.34;62.46
11525;BME280;5819;49.648;8.330;2022-08-21T00:23:15;100420.91;;;18.27;63.17
11525;BME280;5819;49.648;8.330;2022-08-21T00:25:45;100427.88;;;18.28;63.24
11525;BME280;5819;49.648;8.330;2022-08-21T00:28:14;100421.16;;;18.23;63.65
11525;BME280;5819;49.648;8.330;2022-08-21T00:30:42;100423.59;;;18.14;63.68
11525;BME280;5819;49.648;8.330;2022-08-21T00:33:11;100426.16;;;17.66;65.75
11525;BME280;5819;49.648;8.330;2022-08-21T00:35:42;100438.78;;;17.11;66.98
11525;BME280;5819;49.648;8.330;2022-08-21T00:38:10;100430.56;;;17.03;66.91
11525;BME280;5819;49.648;8.330;2022-08-21T00:40:42;100426.25;;;17.02;67.78
11525;BME280;5819;49.648;8.330;2022-08-21T00:43:14;100432.69;;;17.23;67.32
11525;BME280;5819;49.648;8.330;2022-08-21T00:45:43;100431.31;;;17.68;65.76
11525;BME280;5819;49.648;8.330;2022-08-21T00:48:11;100438.94;;;17.96;65.24
11525;BME280;5819;49.648;8.330;2022-08-21T00:50:43;100440.69;;;17.72;66.10
11525;BME280;5819;49.648;8.330;2022-08-21T00:53:12;100435.63;;;17.56;66.96
11525;BME280;5819;49.648;8.330;2022-08-21T00:55:41;100435.72;;;17.42;67.40
11525;BME280;5819;49.648;8.330;2022-08-21T00:58:12;100428.38;;;17.60;67.11
11525;BME280;5819;49.648;8.330;2022-08-21T01:00:44;100435.81;;;17.53;66.68
11525;BME280;5819;49.648;8.330;2022-08-21T01:03:17;100433.44;;;17.25;67.95
11525;BME280;5819;49.648;8.330;2022-08-21T01:05:49;100432.78;;;17.21;68.75
11525;BME280;5819;49.648;8.330;2022-08-21T01:08:19;100436.16;;;17.23;68.24
11525;BME280;5819;49.648;8.330;2022-08-21T01:10:47;100437.94;;;17.23;68.16
11525;BME280;5819;49.648;8.330;2022-08-21T01:13:27;100436.56;;;17.30;67.68
11525;BME280;5819;49.648;8.330;2022-08-21T01:15:59;100435.72;;;17.42;67.36
11525;BME280;5819;49.648;8.330;2022-08-21T01:18:29;100434.78;;;17.43;67.50
11525;BME280;5819;49.648;8.330;2022-08-21T01:21:06;100429.53;;;17.43;67.47
11525;BME280;5819;49.648;8.330;2022-08-21T01:23:41;100430.06;;;17.48;67.48
11525;BME280;5819;49.648;8.330;2022-08-21T01:26:11;100424.34;;;17.54;67.11
11525;BME280;5819;49.648;8.330;2022-08-21T01:28:47;100430.06;;;17.61;66.80
11525;BME280;5819;49.648;8.330;2022-08-21T01:31:19;100429.66;;;17.29;67.96
11525;BME280;5819;49.648;8.330;2022-08-21T01:33:53;100431.53;;;17.27;67.77
11525;BME280;5819;49.648;8.330;2022-08-21T01:36:23;100428.50;;;17.33;67.61
11525;BME280;5819;49.648;8.330;2022-08-21T01:38:52;100427.53;;;17.21;68.16
11525;BME280;5819;49.648;8.330;2022-08-21T01:41:20;100430.69;;;17.26;67.67
11525;BME280;5819;49.648;8.330;2022-08-21T01:43:48;100428.59;;;17.19;67.59
11525;BME280;5819;49.648;8.330;2022-08-21T01:46:19;100425.66;;;17.23;66.75
11525;BME280;5819;49.648;8.330;2022-08-21T01:48:47;100419.00;;;17.56;65.25
11525;BME280;5819;49.648;8.330;2022-08-21T01:51:15;100427.06;;;17.78;64.81
11525;BME280;5819;49.648;8.330;2022-08-21T01:53:44;100428.41;;;17.96;63.25
11525;BME280;5819;49.648;8.330;2022-08-21T01:56:15;100416.59;;;18.02;64.13
11525;BME280;5819;49.648;8.330;2022-08-21T01:58:45;100421.34;;;17.97;64.06
11525;BME280;5819;49.648;8.330;2022-08-21T02:01:14;100413.81;;;17.80;64.56
11525;BME280;5819;49.648;8.330;2022-08-21T02:03:42;100410.41;;;17.41;66.16
11525;BME280;5819;49.648;8.330;2022-08-21T02:06:13;100421.09;;;17.25;66.88
11525;BME280;5819;49.648;8.330;2022-08-21T02:08:45;100413.03;;;17.16;67.28
11525;BME280;5819;49.648;8.330;2022-08-21T02:11:14;100412.81;;;17.31;66.41
11525;BME280;5819;49.648;8.330;2022-08-21T02:13:42;100408.38;;;17.57;65.08
11525;BME280;5819;49.648;8.330;2022-08-21T02:16:11;100409.50;;;17.78;64.68
11525;BME280;5819;49.648;8.330;2022-08-21T02:18:45;100410.16;;;17.69;64.55
11525;BME280;5819;49.648;8.330;2022-08-21T02:21:13;100414.91;;;17.26;64.32
11525;BME280;5819;49.648;8.330;2022-08-21T02:23:42;100418.63;;;16.59;66.51
11525;BME280;5819;49.648;8.330;2022-08-21T02:26:12;100417.91;;;16.43;67.13
11525;BME280;5819;49.648;8.330;2022-08-21T02:28:41;100411.28;;;16.11;69.01
11525;BME280;5819;49.648;8.330;2022-08-21T02:31:09;100408.31;;;16.03;69.84
11525;BME280;5819;49.648;8.330;2022-08-21T02:33:38;100402.06;;;16.18;69.21
11525;BME280;5819;49.648;8.330;2022-08-21T02:36:08;100410.22;;;16.27;68.56
11525;BME280;5819;49.648;8.330;2022-08-21T02:38:37;100404.09;;;16.27;68.85
11525;BME280;5819;49.648;8.330;2022-08-21T02:41:07;100410.84;;;16.31;69.12
11525;BME280;5819;49.648;8.330;2022-08-21T02:43:36;100414.25;;;16.19;69.16
11525;BME280;5819;49.648;8.330;2022-08-21T02:46:10;100415.81;;;15.95;69.44
11525;BME280;5819;49.648;8.330;2022-08-21T02:48:39;100408.38;;;15.88;69.45
11525;BME280;5819;49.648;8.330;2022-08-21T02:51:11;100414.19;;;15.79;69.74
11525;BME280;5819;49.648;8.330;2022-08-21T02:53:40;100414.19;;;15.79;70.02
11525;BME280;5819;49.648;8.330;2022-08-21T02:56:10;100411.56;;;15.79;69.98
11525;BME280;5819;49.648;8.330;2022-08-21T02:58:43;100410.03;;;15.89;69.89
11525;BME280;5819;49.648;8.330;2022-08-21T03:01:12;100412.69;;;15.75;70.28
11525;BME280;5819;49.648;8.330;2022-08-21T03:03:42;100410.28;;;15.99;69.84
11525;BME280;5819;49.648;8.330;2022-08-21T03:06:13;100408.81;;;16.22;68.85
11525;BME280;5819;49.648;8.330;2022-08-21T03:08:41;100415.84;;;16.21;69.46
11525;BME280;5819;49.648;8.330;2022-08-21T03:11:12;100417.88;;;16.30;68.84
11525;BME280;5819;49.648;8.330;2022-08-21T03:13:43;100405.31;;;16.35;68.89
11525;BME280;5819;49.648;8.330;2022-08-21T03:16:11;100412.31;;;16.35;68.82
11525;BME280;5819;49.648;8.330;2022-08-21T03:18:39;100413.31;;;16.47;68.60
11525;BME280;5819;49.648;8.330;2022-08-21T03:21:07;100413.66;;;16.55;68.52
11525;BME280;5819;49.648;8.330;2022-08-21T03:23:35;100417.38;;;16.38;69.05
11525;BME280;5819;49.648;8.330;2022-08-21T03:26:04;100410.13;;;16.42;69.37
11525;BME280;5819;49.648;8.330;2022-08-21T03:28:33;100404.72;;;16.45;69.32
11525;BME280;5819;49.648;8.330;2022-08-21T03:31:03;100426.97;;;16.52;68.58
11525;BME280;5819;49.648;8.330;2022-08-21T03:33:32;100416.19;;;16.56;68.28
11525;BME280;5819;49.648;8.330;2022-08-21T03:36:05;100414.56;;;16.54;68.65
11525;BME280;5819;49.648;8.330;2022-08-21T03:38:35;100412.91;;;16.53;68.63
11525;BME280;5819;49.648;8.330;2022-08-21T03:41:03;100419.78;;;16.41;68.81
11525;BME280;5819;49.648;8.330;2022-08-21T03:43:34;100420.00;;;16.38;68.79
11525;BME280;5819;49.648;8.330;2022-08-21T03:46:05;100420.13;;;16.36;68.91
11525;BME280;5819;49.648;8.330;2022-08-21T03:48:34;100417.56;;;16.35;69.23
11525;BME280;5819;49.648;8.330;2022-08-21T03:51:03;100419.63;;;16.44;68.24
11525;BME280;5819;49.648;8.330;2022-08-21T03:53:33;100421.19;;;16.47;68.49
11525;BME280;5819;49.648;8.330;2022-08-21T03:56:02;100420.13;;;16.36;68.94
11525;BME280;5819;49.648;8.330;2022-08-21T03:58:30;100423.13;;;16.30;69.58
11525;BME280;5819;49.648;8.330;2022-08-21T04:00:59;100417.72;;;16.19;70.18
11525;BME280;5819;49.648;8.330;2022-08-21T04:03:29;100420.66;;;16.15;70.44
11525;BME280;5819;49.648;8.330;2022-08-21T04:05:57;100429.16;;;16.18;70.56
11525;BME280;5819;49.648;8.330;2022-08-21T04:08:25;100424.69;;;16.20;69.60
11525;BME280;5819;49.648;8.330;2022-08-21T04:10:55;100433.56;;;16.18;70.50
11525;BME280;5819;49.648;8.330;2022-08-21T04:13:25;100435.13;;;16.08;70.51
11525;BME280;5819;49.648;8.330;2022-08-21T04:15:54;100430.25;;;16.02;70.83
11525;BME280;5819;49.648;8.330;2022-08-21T04:18:22;100438.88;;;16.04;70.13
11525;BME280;5819;49.648;8.330;2022-08-21T04:20:53;100443.84;;;15.94;70.81
11525;BME280;5819;49.648;8.330;2022-08-21T04:23:24;100445.19;;;15.87;71.82
11525;BME280;5819;49.648;8.330;2022-08-21T04:25:53;100439.84;;;15.74;72.24
11525;BME280;5819;49.648;8.330;2022-08-21T04:28:22;100443.16;;;15.64;73.83
11525;BME280;5819;49.648;8.330;2022-08-21T04:30:56;100447.59;;;15.90;72.26
11525;BME280;5819;49.648;8.330;2022-08-21T04:33:24;100453.84;;;16.02;71.82
11525;BME280;5819;49.648;8.330;2022-08-21T04:35:54;100453.69;;;15.90;72.38
11525;BME280;5819;49.648;8.330;2022-08-21T04:38:22;100455.94;;;15.82;72.86
11525;BME280;5819;49.648;8.330;2022-08-21T04:40:51;100456.78;;;15.69;73.36
11525;BME280;5819;49.648;8.330;2022-08-21T04:43:20;100457.75;;;15.68;73.16
11525;BME280;5819;49.648;8.330;2022-08-21T04:45:50;100455.59;;;15.74;72.74
11525;BME280;5819;49.648;8.330;2022-08-21T04:48:21;100454.38;;;15.80;72.73
11525;BME280;5819;49.648;8.330;2022-08-21T04:50:54;100455.03;;;15.83;72.09
11525;BME280;5819;49.648;8.330;2022-08-21T04:53:26;100453.91;;;15.73;74.50
11525;BME280;5819;49.648;8.330;2022-08-21T04:55:58;100467.13;;;15.72;74.23
11525;BME280;5819;49.648;8.330;2022-08-21T04:58:28;100466.44;;;15.82;73.72
11525;BME280;5819;49.648;8.330;2022-08-21T05:01:02;100468.31;;;15.95;73.45
11525;BME280;5819;49.648;8.330;2022-08-21T05:03:32;100475.81;;;16.01;72.63
11525;BME280;5819;49.648;8.330;2022-08-21T05:06:03;100473.44;;;16.10;72.48
11525;BME280;5819;49.648;8.330;2022-08-21T05:08:32;100472.22;;;16.16;72.26
11525;BME280;5819;49.648;8.330;2022-08-21T05:11:02;100474.22;;;16.25;72.05
11525;BME280;5819;49.648;8.330;2022-08-21T05:13:30;100480.59;;;16.35;72.04
11525;BME280;5819;49.648;8.330;2022-08-21T05:15:59;100469.50;;;16.44;71.96
11525;BME280;5819;49.648;8.330;2022-08-21T05:18:27;100481.19;;;16.53;71.24
11525;BME280;5819;49.648;8.330;2022-08-21T05:20:55;100483.63;;;16.56;71.28
11525;BME280;5819;49.648;8.330;2022-08-21T05:23:25;100476.00;;;16.65;71.37
11525;BME280;5819;49.648;8.330;2022-08-21T05:25:53;100480.22;;;16.68;71.66
11525;BME280;5819;49.648;8.330;2022-08-21T05:28:22;100482.75;;;16.69;71.67
11525;BME280;5819;49.648;8.330;2022-08-21T05:30:52;100478.78;;;16.76;74.36
11525;BME280;5819;49.648;8.330;2022-08-21T05:33:21;100482.44;;;16.74;76.67
11525;BME280;5819;49.648;8.330;2022-08-21T05:35:50;100480.09;;;16.69;76.47
11525;BME280;5819;49.648;8.330;2022-08-21T05:38:19;100488.16;;;16.80;74.25
11525;BME280;5819;49.648;8.330;2022-08-21T05:40:49;100484.38;;;16.84;73.54
11525;BME280;5819;49.648;8.330;2022-08-21T05:43:17;100481.88;;;16.96;73.25
11525;BME280;5819;49.648;8.330;2022-08-21T05:45:45;100483.91;;;17.05;73.00
11525;BME280;5819;49.648;8.330;2022-08-21T05:48:15;100486.53;;;17.05;72.56
11525;BME280;5819;49.648;8.330;2022-08-21T05:50:45;100480.75;;;17.12;72.32
11525;BME280;5819;49.648;8.330;2022-08-21T05:53:15;100486.22;;;17.22;71.78
11525;BME280;5819;49.648;8.330;2022-08-21T05:55:44;100481.50;;;17.27;70.96
11525;BME280;5819;49.648;8.330;2022-08-21T05:58:16;100473.06;;;17.35;70.67
11525;BME280;5819;49.648;8.330;2022-08-21T06:00:45;100479.81;;;17.39;70.62
11525;BME280;5819;49.648;8.330;2022-08-21T06:03:15;100482.75;;;17.47;70.34
11525;BME280;5819;49.648;8.330;2022-08-21T06:05:45;100479.81;;;17.51;70.68
11525;BME280;5819;49.648;8.330;2022-08-21T06:08:14;100480.34;;;17.56;70.69
11525;BME280;5819;49.648;8.330;2022-08-21T06:10:43;100490.16;;;17.67;70.60
11525;BME280;5819;49.648;8.330;2022-08-21T06:13:15;100478.84;;;17.77;70.05
11525;BME280;5819;49.648;8.330;2022-08-21T06:15:44;100487.91;;;17.86;70.58
11525;BME280;5819;49.648;8.330;2022-08-21T06:18:13;100482.94;;;17.94;70.02
11525;BME280;5819;49.648;8.330;2022-08-21T06:20:42;100485.03;;;18.02;69.78
11525;BME280;5819;49.648;8.330;2022-08-21T06:23:10;100495.13;;;18.08;69.34
11525;BME280;5819;49.648;8.330;2022-08-21T06:25:38;100495.22;;;18.19;68.59
11525;BME280;5819;49.648;8.330;2022-08-21T06:28:08;100499.06;;;18.26;68.08
11525;BME280;5819;49.648;8.330;2022-08-21T06:30:39;100496.53;;;18.37;68.14
11525;BME280;5819;49.648;8.330;2022-08-21T06:33:07;100495.84;;;18.46;67.18
11525;BME280;5819;49.648;8.330;2022-08-21T06:35:35;100489.63;;;18.47;66.74
11525;BME280;5819;49.648;8.330;2022-08-21T06:38:07;100492.34;;;18.58;66.49
11525;BME280;5819;49.648;8.330;2022-08-21T06:40:36;100488.09;;;18.68;66.35
11525;BME280;5819;49.648;8.330;2022-08-21T06:43:16;100481.50;;;18.74;66.97
11525;BME280;5819;49.648;8.330;2022-08-21T06:45:45;100476.66;;;18.81;66.45
11525;BME280;5819;49.648;8.330;2022-08-21T06:48:13;100485.69;;;18.89;64.68
11525;BME280;5819;49.648;8.330;2022-08-21T06:50:45;100482.56;;;18.95;65.47
11525;BME280;5819;49.648;8.330;2022-08-21T06:53:16;100485.19;;;18.95;64.45
11525;BME280;5819;49.648;8.330;2022-08-21T06:55:45;100481.47;;;18.98;65.35
11525;BME280;5819;49.648;8.330;2022-08-21T06:58:15;100480.69;;;19.08;65.45
11525;BME280;5819;49.648;8.330;2022-08-21T07:00:47;100480.72;;;19.31;64.38
11525;BME280;5819;49.648;8.330;2022-08-21T07:03:18;100472.22;;;19.27;65.01
11525;BME280;5819;49.648;8.330;2022-08-21T07:05:48;100480.72;;;19.31;64.06
11525;BME280;5819;49.648;8.330;2022-08-21T07:08:17;100478.59;;;19.36;64.42
11525;BME280;5819;49.648;8.330;2022-08-21T07:10:45;100473.00;;;19.51;63.74
11525;BME280;5819;49.648;8.330;2022-08-21T07:13:14;100475.16;;;19.91;62.06
11525;BME280;5819;49.648;8.330;2022-08-21T07:15:43;100468.56;;;19.96;62.07
11525;BME280;5819;49.648;8.330;2022-08-21T07:18:12;100466.03;;;19.95;61.63
11525;BME280;5819;49.648;8.330;2022-08-21T07:20:41;100473.94;;;19.95;62.07
11525;BME280;5819;49.648;8.330;2022-08-21T07:23:13;100468.06;;;20.02;61.71
11525;BME280;5819;49.648;8.330;2022-08-21T07:25:44;100478.00;;;20.10;62.27
11525;BME280;5819;49.648;8.330;2022-08-21T07:28:12;100476.47;;;20.07;62.06
11525;BME280;5819;49.648;8.330;2022-08-21T07:30:40;100474.09;;;19.93;61.41
11525;BME280;5819;49.648;8.330;2022-08-21T07:33:09;100483.44;;;19.97;61.65
11525;BME280;5819;49.648;8.330;2022-08-21T07:35:39;100477.31;;;20.08;62.04
11525;BME280;5819;49.648;8.330;2022-08-21T07:38:07;100476.47;;;20.30;61.03
11525;BME280;5819;49.648;8.330;2022-08-21T07:40:35;100473.91;;;20.28;61.43
11525;BME280;5819;49.648;8.330;2022-08-21T07:43:03;100469.72;;;20.37;61.41
11525;BME280;5819;49.648;8.330;2022-08-21T07:45:37;100472.09;;;20.40;61.80
11525;BME280;5819;49.648;8.330;2022-08-21T07:48:06;100464.91;;;20.42;61.42
11525;BME280;5819;49.648;8.330;2022-08-21T07:50:35;100463.69;;;20.78;60.48
11525;BME280;5819;49.648;8.330;2022-08-21T07:53:05;100463.03;;;20.85;61.06
11525;BME280;5819;49.648;8.330;2022-08-21T07:55:34;100469.41;;;20.83;60.90
11525;BME280;5819;49.648;8.330;2022-08-21T07:58:04;100470.19;;;20.74;61.07
11525;BME280;5819;49.648;8.330;2022-08-21T08:00:33;100465.91;;;20.82;60.72
11525;BME280;5819;49.648;8.330;2022-08-21T08:03:01;100466.31;;;21.30;59.96
11525;BME280;5819;49.648;8.330;2022-08-21T08:05:30;100459.63;;;21.36;59.43
11525;BME280;5819;49.648;8.330;2022-08-21T08:07:59;100455.63;;;21.41;59.15
11525;BME280;5819;49.648;8.330;2022-08-21T08:10:29;100459.31;;;21.50;58.95
11525;BME280;5819;49.648;8.330;2022-08-21T08:12:57;100454.19;;;21.58;59.05
11525;BME280;5819;49.648;8.330;2022-08-21T08:15:26;100449.28;;;21.54;58.96
11525;BME280;5819;49.648;8.330;2022-08-21T08:17:57;100452.94;;;21.62;58.69
11525;BME280;5819;49.648;8.330;2022-08-21T08:20:26;100453.75;;;21.63;58.95
11525;BME280;5819;49.648;8.330;2022-08-21T08:22:54;100451.94;;;21.54;58.41
11525;BME280;5819;49.648;8.330;2022-08-21T08:25:25;100445.13;;;21.61;58.71
11525;BME280;5819;49.648;8.330;2022-08-21T08:28:04;100443.94;;;21.84;58.37
11525;BME280;5819;49.648;8.330;2022-08-21T08:30:43;100437.41;;;21.88;58.23
11525;BME280;5819;49.648;8.330;2022-08-21T08:33:11;100434.16;;;22.15;57.95
11525;BME280;5819;49.648;8.330;2022-08-21T08:35:40;100434.28;;;22.04;57.81
11525;BME280;5819;49.648;8.330;2022-08-21T08:38:09;100430.53;;;22.06;57.55
11525;BME280;5819;49.648;8.330;2022-08-21T08:40:41;100426.63;;;22.20;57.30
11525;BME280;5819;49.648;8.330;2022-08-21T08:43:13;100430.69;;;22.14;57.47
11525;BME280;5819;49.648;8.330;2022-08-21T08:45:44;100424.44;;;22.44;57.03
11525;BME280;5819;49.648;8.330;2022-08-21T08:48:21;100417.16;;;23.04;56.14
11525;BME280;5819;49.648;8.330;2022-08-21T08:50:59;100409.34;;;22.83;56.11
11525;BME280;5819;49.648;8.330;2022-08-21T08:53:33;100408.25;;;22.76;56.96
11525;BME280;5819;49.648;8.330;2022-08-21T08:56:04;100405.19;;;22.71;57.07
11525;BME280;5819;49.648;8.330;2022-08-21T08:58:39;100404.88;;;22.93;56.74
11525;BME280;5819;49.648;8.330;2022-08-21T09:01:13;100403.31;;;23.00;56.36
11525;BME280;5819;49.648;8.330;2022-08-21T09:03:44;100405.13;;;23.09;56.47
11525;BME280;5819;49.648;8.330;2022-08-21T09:06:27;100397.75;;;23.50;55.62
11525;BME280;5819;49.648;8.330;2022-08-21T09:09:03;100396.72;;;23.60;54.99
11525;BME280;5819;49.648;8.330;2022-08-21T09:11:42;100393.50;;;23.66;54.57
11525;BME280;5819;49.648;8.330;2022-08-21T09:14:24;100388.63;;;23.62;54.63
11525;BME280;5819;49.648;8.330;2022-08-21T09:16:56;100394.97;;;23.78;54.47
11525;BME280;5819;49.648;8.330;2022-08-21T09:19:44;100380.84;;;23.78;54.74
11525;BME280;5819;49.648;8.330;2022-08-21T09:22:23;100388.53;;;23.71;54.25
11525;BME280;5819;49.648;8.330;2022-08-21T09:25:03;100386.38;;;23.85;53.46
11525;BME280;5819;49.648;8.330;2022-08-21T09:27:35;100376.47;;;24.04;52.98
11525;BME280;5819;49.648;8.330;2022-08-21T09:30:08;100384.00;;;24.09;52.82
11525;BME280;5819;49.648;8.330;2022-08-21T09:32:38;100378.09;;;24.50;51.05
11525;BME280;5819;49.648;8.330;2022-08-21T09:35:09;100378.09;;;24.33;52.21
11525;BME280;5819;49.648;8.330;2022-08-21T09:37:48;100382.81;;;24.21;52.86
11525;BME280;5819;49.648;8.330;2022-08-21T09:40:26;100383.19;;;24.44;50.31
11525;BME280;5819;49.648;8.330;2022-08-21T09:43:00;100387.13;;;24.57;49.31
11525;BME280;5819;49.648;8.330;2022-08-21T09:45:30;100378.56;;;24.71;49.60
11525;BME280;5819;49.648;8.330;2022-08-21T09:48:13;100383.75;;;24.73;49.09
11525;BME280;5819;49.648;8.330;2022-08-21T09:50:42;100372.84;;;24.84;49.28
11525;BME280;5819;49.648;8.330;2022-08-21T09:53:19;100372.47;;;25.56;46.31
11525;BME280;5819;49.648;8.330;2022-08-21T09:55:51;100366.94;;;25.84;45.88
11525;BME280;5819;49.648;8.330;2022-08-21T09:58:40;100370.00;;;26.21;45.60
11525;BME280;5819;49.648;8.330;2022-08-21T10:01:14;100365.03;;;26.67;44.57
11525;BME280;5819;49.648;8.330;2022-08-21T10:03:43;100367.00;;;26.81;43.45
11525;BME280;5819;49.648;8.330;2022-08-21T10:06:22;100369.53;;;26.82;43.80
11525;BME280;5819;49.648;8.330;2022-08-21T10:08:50;100360.22;;;27.33;42.03
11525;BME280;5819;49.648;8.330;2022-08-21T10:11:24;100360.69;;;27.45;41.68
11525;BME280;5819;49.648;8.330;2022-08-21T10:14:00;100362.66;;;27.90;41.88
11525;BME280;5819;49.648;8.330;2022-08-21T10:16:37;100358.00;;;28.37;40.48
11525;BME280;5819;49.648;8.330;2022-08-21T10:19:15;100352.25;;;28.71;39.25
11525;BME280;5819;49.648;8.330;2022-08-21T10:21:59;100337.59;;;28.97;39.62
11525;BME280;5819;49.648;8.330;2022-08-21T10:24:33;100334.53;;;29.00;39.48
11525;BME280;5819;49.648;8.330;2022-08-21T10:27:12;100321.03;;;29.52;38.43
11525;BME280;5819;49.648;8.330;2022-08-21T10:29:49;100319.19;;;29.23;38.62
11525;BME280;5819;49.648;8.330;2022-08-21T10:32:46;100318.28;;;29.16;39.51
11525;BME280;5819;49.648;8.330;2022-08-21T10:35:22;100322.31;;;28.82;39.99
11525;BME280;5819;49.648;8.330;2022-08-21T10:38:10;100316.97;;;28.45;40.76
11525;BME280;5819;49.648;8.330;2022-08-21T10:41:11;100312.56;;;28.52;40.75
11525;BME280;5819;49.648;8.330;2022-08-21T10:43:50;100318.34;;;28.41;40.99
11525;BME280;5819;49.648;8.330;2022-08-21T10:46:26;100307.84;;;28.54;39.38
11525;BME280;5819;49.648;8.330;2022-08-21T10:49:12;100318.19;;;28.20;40.42
11525;BME280;5819;49.648;8.330;2022-08-21T10:51:46;100320.09;;;28.49;40.26
11525;BME280;5819;49.648;8.330;2022-08-21T10:54:26;100306.91;;;28.85;40.25
11525;BME280;5819;49.648;8.330;2022-08-21T10:57:04;100309.03;;;28.74;39.88
11525;BME280;5819;49.648;8.330;2022-08-21T10:59:41;100311.91;;;28.05;41.19
11525;BME280;5819;49.648;8.330;2022-08-21T11:02:13;100323.34;;;28.21;40.71
11525;BME280;5819;49.648;8.330;2022-08-21T11:04:50;100310.41;;;27.49;40.34
11525;BME280;5819;49.648;8.330;2022-08-21T11:07:26;100305.22;;;28.09;39.91
11525;BME280;5819;49.648;8.330;2022-08-21T11:10:14;100303.84;;;28.35;40.55
11525;BME280;5819;49.648;8.330;2022-08-21T11:12:48;100293.19;;;28.65;40.14
11525;BME280;5819;49.648;8.330;2022-08-21T11:15:34;100294.25;;;29.08;38.78
11525;BME280;5819;49.648;8.330;2022-08-21T11:18:16;100290.19;;;29.12;37.38
11525;BME280;5819;49.648;8.330;2022-08-21T11:20:59;100288.53;;;28.96;38.82
11525;BME280;5819;49.648;8.330;2022-08-21T11:23:34;100286.94;;;30.24;35.66
11525;BME280;5819;49.648;8.330;2022-08-21T11:26:07;100281.69;;;30.93;34.80
11525;BME280;5819;49.648;8.330;2022-08-21T11:28:43;100278.13;;;31.94;33.52
11525;BME280;5819;49.648;8.330;2022-08-21T11:31:24;100280.06;;;32.33;32.24
11525;BME280;5819;49.648;8.330;2022-08-21T11:34:07;100268.78;;;32.95;31.97
11525;BME280;5819;49.648;8.330;2022-08-21T11:36:45;100263.72;;;33.63;31.25
11525;BME280;5819;49.648;8.330;2022-08-21T11:39:22;100268.34;;;34.43;30.12
11525;BME280;5819;49.648;8.330;2022-08-21T11:42:00;100256.34;;;35.00;29.96
11525;BME280;5819;49.648;8.330;2022-08-21T11:44:42;100264.31;;;35.13;28.77
11525;BME280;5819;49.648;8.330;2022-08-21T11:47:15;100254.34;;;35.44;27.89
11525;BME280;5819;49.648;8.330;2022-08-21T11:49:56;100250.59;;;34.79;28.41
11525;BME280;5819;49.648;8.330;2022-08-21T11:52:34;100242.97;;;35.83;27.81
11525;BME280;5819;49.648;8.330;2022-08-21T11:55:07;100245.13;;;36.04;27.58
11525;BME280;5819;49.648;8.330;2022-08-21T11:57:42;100242.06;;;35.59;27.89
11525;BME280;5819;49.648;8.330;2022-08-21T12:00:16;100244.47;;;36.44;27.52
11525;BME280;5819;49.648;8.330;2022-08-21T12:02:50;100244.22;;;35.39;28.10
11525;BME280;5819;49.648;8.330;2022-08-21T12:05:26;100235.81;;;35.11;29.15
11525;BME280;5819;49.648;8.330;2022-08-21T12:08:11;100225.59;;;36.02;28.29
11525;BME280;5819;49.648;8.330;2022-08-21T12:10:42;100225.16;;;36.75;28.40
11525;BME280;5819;49.648;8.330;2022-08-21T12:13:23;100228.53;;;34.07;30.85
11525;BME280;5819;49.648;8.330;2022-08-21T12:16:10;100230.28;;;33.32;30.62
11525;BME280;5819;49.648;8.330;2022-08-21T12:18:39;100227.00;;;34.43;30.50
11525;BME280;5819;49.648;8.330;2022-08-21T12:21:21;100226.63;;;35.18;28.18
11525;BME280;5819;49.648;8.330;2022-08-21T12:24:01;100226.63;;;35.60;28.26
11525;BME280;5819;49.648;8.330;2022-08-21T12:26:32;100230.91;;;33.72;30.24
11525;BME280;5819;49.648;8.330;2022-08-21T12:29:22;100233.97;;;30.11;34.40
11525;BME280;5819;49.648;8.330;2022-08-21T12:31:54;100227.00;;;31.13;33.38
11525;BME280;5819;49.648;8.330;2022-08-21T12:34:32;100218.19;;;32.97;31.13
11525;BME280;5819;49.648;8.330;2022-08-21T12:37:04;100216.56;;;33.72;30.36
11525;BME280;5819;49.648;8.330;2022-08-21T12:39:38;100216.75;;;33.77;30.75
11525;BME280;5819;49.648;8.330;2022-08-21T12:42:16;100223.50;;;33.55;30.69
11525;BME280;5819;49.648;8.330;2022-08-21T12:44:47;100215.91;;;33.45;30.00
11525;BME280;5819;49.648;8.330;2022-08-21T12:47:25;100212.72;;;33.55;30.03
11525;BME280;5819;49.648;8.330;2022-08-21T12:50:00;100208.56;;;34.58;28.93
11525;BME280;5819;49.648;8.330;2022-08-21T12:52:34;100201.56;;;35.05;28.57
11525;BME280;5819;49.648;8.330;2022-08-21T12:55:11;100211.03;;;34.59;29.41
11525;BME280;5819;49.648;8.330;2022-08-21T12:57:40;100208.66;;;34.69;29.69
11525;BME280;5819;49.648;8.330;2022-08-21T13:00:12;100211.03;;;34.41;29.19
11525;BME280;5819;49.648;8.330;2022-08-21T13:02:45;100203.91;;;35.19;28.81
11525;BME280;5819;49.648;8.330;2022-08-21T13:05:31;100200.41;;;35.60;28.44
11525;BME280;5819;49.648;8.330;2022-08-21T13:08:03;100198.59;;;35.84;28.13
11525;BME280;5819;49.648;8.330;2022-08-21T13:10:34;100203.03;;;34.71;29.37
11525;BME280;5819;49.648;8.330;2022-08-21T13:13:05;100201.50;;;34.75;28.36
11525;BME280;5819;49.648;8.330;2022-08-21T13:15:41;100203.84;;;34.04;29.13
11525;BME280;5819;49.648;8.330;2022-08-21T13:18:20;100198.25;;;34.30;28.43
11525;BME280;5819;49.648;8.330;2022-08-21T13:20:50;100199.25;;;34.54;28.85
11525;BME280;5819;49.648;8.330;2022-08-21T13:23:23;100201.59;;;33.76;29.15
11525;BME280;5819;49.648;8.330;2022-08-21T13:25:53;100193.22;;;33.15;30.01